Time;durP1;ratioP1;P1;durP2;ratioP2;P2;SDS_P1;SDS_P2;PMS_P1;PMS_P2;Temp;Humidity;BMP_temperature;BMP_pressure;BME280_temperature;BME280_humidity;BME280_pressure;Samples;Min_cycle;Max_cycle;Signal;HPM_P1;HPM_P2
2022/07/10 00:00:11;;;;;;;2.30;2.10;;;17.90;99.90;;;;;;5113225;28;20503;-47
2022/07/10 00:02:38;;;;;;;5.40;1.93;;;17.90;99.90;;;;;;5113428;28;20470;-47
2022/07/10 00:05:06;;;;;;;1.73;1.40;;;17.90;99.90;;;;;;5113350;27;20519;-49
2022/07/10 00:07:33;;;;;;;2.70;1.67;;;18.00;99.90;;;;;;5113296;28;21015;-47
2022/07/10 00:10:01;;;;;;;2.73;1.50;;;17.90;99.90;;;;;;5113026;28;20442;-49
2022/07/10 00:12:28;;;;;;;2.10;1.73;;;17.90;99.90;;;;;;5113261;28;20485;-51
2022/07/10 00:14:55;;;;;;;3.50;1.70;;;17.90;99.90;;;;;;5112970;28;20478;-47
2022/07/10 00:17:23;;;;;;;1.93;1.20;;;17.90;99.90;;;;;;5112991;28;20431;-48
2022/07/10 00:19:50;;;;;;;2.40;1.50;;;17.80;99.90;;;;;;5112524;28;20864;-47
2022/07/10 00:22:17;;;;;;;2.73;1.33;;;17.80;99.90;;;;;;5112954;28;20455;-48
2022/07/10 00:24:44;;;;;;;2.60;1.93;;;17.80;99.90;;;;;;5112939;28;20500;-48
2022/07/10 00:27:12;;;;;;;4.03;1.57;;;17.80;99.90;;;;;;5113088;28;20434;-48
2022/07/10 00:29:39;;;;;;;2.23;1.40;;;17.80;99.90;;;;;;5112108;28;20430;-47
2022/07/10 00:32:07;;;;;;;3.27;1.43;;;17.70;99.90;;;;;;5112808;28;20451;-49
2022/07/10 00:34:35;;;;;;;3.37;1.80;;;17.70;99.90;;;;;;5112537;28;20422;-50
2022/07/10 00:37:02;;;;;;;3.17;2.10;;;17.80;99.90;;;;;;5112880;28;20499;-47
2022/07/10 00:39:29;;;;;;;2.77;2.07;;;17.80;99.90;;;;;;5112466;28;20439;-47
2022/07/10 00:41:56;;;;;;;2.43;1.47;;;17.80;99.90;;;;;;5112690;28;20999;-47
2022/07/10 00:44:24;;;;;;;2.40;2.20;;;17.70;99.90;;;;;;5112810;28;20442;-47
2022/07/10 00:46:51;;;;;;;3.70;1.87;;;17.60;99.90;;;;;;5112761;28;20487;-48
2022/07/10 00:49:18;;;;;;;2.57;2.10;;;17.50;99.90;;;;;;5112281;28;20475;-47
2022/07/10 00:51:46;;;;;;;3.13;2.13;;;17.10;99.90;;;;;;5112490;28;20466;-49
2022/07/10 00:54:13;;;;;;;2.90;2.10;;;17.10;99.90;;;;;;5112155;28;20838;-48
2022/07/10 00:56:42;;;;;;;3.20;1.57;;;17.20;99.90;;;;;;5111628;28;20474;-49
2022/07/10 00:59:10;;;;;;;2.73;1.80;;;17.30;99.90;;;;;;5112030;27;20797;-49
2022/07/10 01:01:39;;;;;;;2.80;1.30;;;17.40;99.90;;;;;;5112337;28;20850;-50
2022/07/10 01:04:06;;;;;;;2.03;1.50;;;17.50;99.90;;;;;;5112395;28;20443;-49
2022/07/10 01:06:33;;;;;;;2.37;2.00;;;17.60;99.90;;;;;;5112147;28;20482;-48
2022/07/10 01:09:00;;;;;;;2.40;2.00;;;17.70;99.90;;;;;;5111928;28;20457;-49
2022/07/10 01:11:27;;;;;;;2.40;1.90;;;17.70;99.90;;;;;;5112692;28;20446;-49
2022/07/10 01:13:54;;;;;;;2.40;1.60;;;17.70;99.90;;;;;;5112010;28;20523;-51
2022/07/10 01:16:23;;;;;;;2.63;2.17;;;17.70;99.90;;;;;;5111688;27;20565;-48
2022/07/10 01:18:51;;;;;;;5.17;1.87;;;17.60;99.90;;;;;;5111557;28;20434;-48
2022/07/10 01:21:26;;;;;;;2.60;1.60;;;17.50;99.90;;;;;;5112065;28;20480;-47
2022/07/10 01:23:53;;;;;;;2.00;1.70;;;17.50;99.90;;;;;;5111851;28;20943;-48
2022/07/10 01:26:21;;;;;;;2.17;1.97;;;17.50;99.90;;;;;;5111650;27;20459;-47
2022/07/10 01:28:50;;;;;;;2.20;1.63;;;17.60;99.90;;;;;;5111412;28;20477;-48
2022/07/10 01:31:18;;;;;;;2.63;2.20;;;17.70;99.90;;;;;;5111054;28;20431;-47
2022/07/10 01:33:45;;;;;;;2.17;1.63;;;17.70;99.90;;;;;;5111152;28;20447;-47
2022/07/10 01:36:13;;;;;;;2.23;1.90;;;17.70;99.90;;;;;;5111447;28;20917;-48
2022/07/10 01:38:42;;;;;;;7.13;1.80;;;17.70;99.90;;;;;;5111360;28;20528;-48
2022/07/10 01:41:09;;;;;;;2.10;1.90;;;17.60;99.90;;;;;;5111495;28;20450;-47
2022/07/10 01:43:36;;;;;;;2.70;1.73;;;17.60;99.90;;;;;;5111263;28;20430;-46
2022/07/10 01:46:04;;;;;;;2.27;1.53;;;17.60;99.90;;;;;;5111178;28;20574;-46
2022/07/10 01:48:31;;;;;;;2.60;1.97;;;17.60;99.90;;;;;;5111134;28;20434;-47
2022/07/10 01:50:58;;;;;;;2.23;2.00;;;17.60;99.90;;;;;;5111178;27;20520;-50
2022/07/10 01:53:25;;;;;;;2.80;1.70;;;17.60;99.90;;;;;;5111305;28;20471;-45
2022/07/10 01:55:54;;;;;;;2.93;1.83;;;17.60;99.90;;;;;;5110602;28;21036;-47
2022/07/10 01:58:21;;;;;;;4.23;1.90;;;17.60;99.90;;;;;;5111278;28;20423;-49
2022/07/10 02:00:48;;;;;;;6.10;2.00;;;17.60;99.90;;;;;;5111298;28;20507;-47
2022/07/10 02:06:00;;;;;;;2.77;1.70;;;17.50;99.90;;;;;;5110956;28;20508;-45
2022/07/10 02:08:27;;;;;;;1.67;1.30;;;17.50;99.90;;;;;;5111107;28;20450;-45
2022/07/10 02:10:55;;;;;;;2.30;1.83;;;17.50;99.90;;;;;;5110743;28;20495;-47
2022/07/10 02:13:24;;;;;;;2.30;1.87;;;17.50;99.90;;;;;;5110876;28;20450;-47
2022/07/10 02:15:51;;;;;;;7.73;2.07;;;17.30;99.90;;;;;;5110471;28;20500;-45
2022/07/10 02:18:18;;;;;;;2.90;2.47;;;17.10;99.90;;;;;;5110841;28;20492;-46
2022/07/10 02:20:45;;;;;;;3.20;1.90;;;16.80;99.90;;;;;;5110566;28;20860;-46
2022/07/10 02:23:12;;;;;;;5.30;2.30;;;17.00;99.90;;;;;;5110767;28;20447;-46
2022/07/10 02:25:39;;;;;;;3.83;2.57;;;16.90;99.90;;;;;;5110661;28;20821;-45
2022/07/10 02:28:09;;;;;;;2.50;1.83;;;16.90;99.90;;;;;;5110713;28;20920;-48
2022/07/10 02:30:36;;;;;;;2.83;2.00;;;16.60;99.90;;;;;;5110055;28;20446;-45
2022/07/10 02:33:03;;;;;;;2.73;2.00;;;16.60;99.90;;;;;;5110488;28;20434;-46
2022/07/10 02:35:30;;;;;;;2.80;2.50;;;16.10;99.90;;;;;;5110445;28;20470;-46
2022/07/10 02:37:57;;;;;;;2.00;1.80;;;15.90;99.90;;;;;;5110824;28;20533;-45
2022/07/10 02:40:25;;;;;;;3.00;2.23;;;16.00;99.90;;;;;;5110345;28;20495;-47
2022/07/10 02:42:52;;;;;;;3.27;2.53;;;16.00;99.90;;;;;;5110474;28;20464;-46
2022/07/10 02:45:20;;;;;;;3.10;2.10;;;16.10;99.90;;;;;;5109444;28;20474;-46
2022/07/10 02:47:47;;;;;;;2.70;2.33;;;16.20;99.90;;;;;;5110432;28;20512;-46
2022/07/10 02:50:14;;;;;;;3.67;2.33;;;16.30;99.90;;;;;;5110123;28;20895;-45
2022/07/10 02:52:41;;;;;;;5.30;2.47;;;16.10;99.90;;;;;;5110641;28;20438;-46
2022/07/10 02:55:09;;;;;;;3.30;2.50;;;16.00;99.90;;;;;;5109974;28;20470;-47
2022/07/10 02:57:36;;;;;;;2.60;2.20;;;15.80;99.90;;;;;;5110339;28;20454;-45
2022/07/10 03:00:04;;;;;;;4.50;2.10;;;15.80;99.90;;;;;;5110013;28;20454;-45
2022/07/10 03:02:33;;;;;;;3.60;2.67;;;15.90;99.90;;;;;;5110301;28;20447;-46
2022/07/10 03:05:00;;;;;;;2.60;1.90;;;16.00;99.90;;;;;;5110680;28;20470;-47
2022/07/10 03:07:27;;;;;;;2.50;2.20;;;16.20;99.90;;;;;;5110061;28;20443;-49
2022/07/10 03:09:54;;;;;;;2.13;1.93;;;16.40;99.90;;;;;;5109934;28;20455;-46
2022/07/10 03:12:21;;;;;;;4.17;2.53;;;16.40;99.90;;;;;;5110243;28;20459;-48
2022/07/10 03:14:48;;;;;;;2.80;2.60;;;16.50;99.90;;;;;;5110126;28;20446;-46
2022/07/10 03:17:15;;;;;;;3.93;2.50;;;16.50;99.90;;;;;;5110005;28;20470;-45
2022/07/10 03:19:43;;;;;;;3.00;2.80;;;16.50;99.90;;;;;;5109875;28;20450;-47
2022/07/10 03:22:10;;;;;;;3.40;2.57;;;16.40;99.90;;;;;;5110057;28;20450;-46
2022/07/10 03:24:37;;;;;;;2.50;2.30;;;16.50;99.90;;;;;;5110034;28;20830;-46
2022/07/10 03:27:05;;;;;;;5.83;2.50;;;16.60;99.90;;;;;;5109941;28;20439;-46
2022/07/10 03:29:32;;;;;;;2.67;2.30;;;16.70;99.90;;;;;;5109058;28;20554;-46
2022/07/10 03:31:59;;;;;;;2.77;2.20;;;16.80;99.90;;;;;;5109895;28;20492;-45
2022/07/10 03:34:26;;;;;;;2.80;2.10;;;16.80;99.90;;;;;;5110076;28;20931;-48
2022/07/10 03:36:55;;;;;;;2.77;1.90;;;16.90;99.90;;;;;;5109817;28;20877;-45
2022/07/10 03:39:22;;;;;;;3.17;2.13;;;16.90;99.90;;;;;;5109597;28;20982;-45
2022/07/10 03:41:49;;;;;;;2.80;2.40;;;16.90;99.90;;;;;;5109814;28;20430;-46
2022/07/10 03:44:16;;;;;;;4.00;2.30;;;17.00;99.90;;;;;;5110038;28;20796;-46
2022/07/10 03:46:43;;;;;;;2.40;2.20;;;17.00;99.90;;;;;;5152970;22;20513;-45
2022/07/10 03:49:10;;;;;;;2.40;2.20;;;17.00;99.90;;;;;;5089293;28;20452;-49
2022/07/10 03:51:37;;;;;;;2.20;2.00;;;17.00;99.90;;;;;;5089355;28;20855;-47
2022/07/10 03:54:05;;;;;;;2.70;2.03;;;16.80;99.90;;;;;;5089481;28;20447;-49
2022/07/10 03:59:16;;;;;;;2.73;1.90;;;16.60;99.90;;;;;;5092723;28;20427;-48
2022/07/10 04:01:43;;;;;;;2.30;2.10;;;16.70;99.90;;;;;;5093075;28;20482;-46
2022/07/10 04:04:10;;;;;;;4.70;2.37;;;16.80;99.90;;;;;;5092890;28;20431;-50
2022/07/10 04:06:38;;;;;;;5.27;2.73;;;16.90;99.90;;;;;;5092783;28;20956;-48
2022/07/10 04:09:07;;;;;;;2.47;2.23;;;16.80;99.90;;;;;;5092570;28;20481;-49
2022/07/10 04:11:34;;;;;;;2.77;2.10;;;16.90;99.90;;;;;;5092583;28;20463;-48
2022/07/10 04:14:01;;;;;;;2.37;2.10;;;16.80;99.90;;;;;;5092855;28;20473;-46
2022/07/10 04:16:28;;;;;;;2.43;2.20;;;16.80;99.90;;;;;;5092566;28;20528;-48
2022/07/10 04:18:55;;;;;;;3.00;2.20;;;16.80;99.90;;;;;;5092513;28;20443;-46
2022/07/10 04:21:22;;;;;;;3.70;2.70;;;16.70;99.90;;;;;;5092747;28;20861;-51
2022/07/10 04:23:49;;;;;;;2.17;1.97;;;16.80;99.90;;;;;;5092593;28;20431;-46
2022/07/10 04:26:17;;;;;;;3.90;2.53;;;16.80;99.90;;;;;;5092356;28;20455;-46
2022/07/10 04:28:44;;;;;;;2.57;2.07;;;16.80;99.90;;;;;;5092385;28;20451;-51
2022/07/10 04:31:11;;;;;;;2.63;2.27;;;16.80;99.90;;;;;;5092090;28;20920;-48
2022/07/10 04:33:38;;;;;;;2.30;2.07;;;16.90;99.90;;;;;;5092404;28;20448;-46
2022/07/10 04:36:05;;;;;;;2.43;2.03;;;16.80;99.90;;;;;;5092155;28;20901;-50
2022/07/10 04:38:32;;;;;;;3.13;2.17;;;16.70;99.90;;;;;;5092381;28;20455;-46
2022/07/10 04:40:59;;;;;;;2.80;2.50;;;16.50;99.90;;;;;;5092099;28;20451;-48
2022/07/10 04:43:28;;;;;;;3.80;3.00;;;16.10;99.90;;;;;;5092274;28;20493;-49
2022/07/10 04:45:55;;;;;;;2.70;2.50;;;16.00;99.90;;;;;;5092216;28;20510;-46
2022/07/10 04:48:22;;;;;;;2.67;2.23;;;16.10;99.90;;;;;;5091942;28;20526;-47
2022/07/10 04:50:49;;;;;;;3.33;2.67;;;16.20;99.90;;;;;;5091843;28;20471;-51
2022/07/10 04:53:16;;;;;;;3.90;2.67;;;16.30;99.90;;;;;;5092102;28;20500;-46
2022/07/10 04:55:43;;;;;;;3.40;2.40;;;16.40;99.90;;;;;;5091404;28;20525;-48
2022/07/10 04:58:10;;;;;;;4.20;2.70;;;16.50;99.90;;;;;;5091925;28;20508;-47
2022/07/10 05:00:38;;;;;;;2.70;2.40;;;16.40;99.90;;;;;;5091527;28;20861;-46
2022/07/10 05:03:05;;;;;;;3.53;2.80;;;16.30;99.90;;;;;;5091747;28;20431;-48
2022/07/10 05:05:32;;;;;;;2.93;2.73;;;16.40;99.90;;;;;;5091437;28;20889;-48
2022/07/10 05:08:00;;;;;;;3.37;3.03;;;16.50;99.90;;;;;;5090953;28;20443;-46
2022/07/10 05:10:28;;;;;;;3.70;2.70;;;16.60;99.90;;;;;;5091344;28;20452;-48
2022/07/10 05:12:55;;;;;;;4.27;3.27;;;16.70;99.90;;;;;;5091663;28;20523;-50
2022/07/10 05:15:22;;;;;;;3.33;2.80;;;16.80;99.90;;;;;;5091600;28;20444;-46
2022/07/10 05:17:50;;;;;;;3.30;3.00;;;16.80;99.90;;;;;;5091314;28;20919;-50
2022/07/10 05:20:17;;;;;;;3.27;2.90;;;16.80;99.90;;;;;;5091273;28;20444;-47
2022/07/10 05:22:44;;;;;;;4.97;3.27;;;16.80;99.90;;;;;;5091562;28;21052;-48
2022/07/10 05:25:11;;;;;;;2.77;2.53;;;16.80;99.90;;;;;;5091375;28;20587;-48
2022/07/10 05:27:38;;;;;;;4.27;2.70;;;16.80;99.90;;;;;;5091396;28;20474;-46
2022/07/10 05:30:06;;;;;;;3.40;2.53;;;16.80;99.90;;;;;;5090879;28;20501;-47
2022/07/10 05:32:33;;;;;;;3.20;2.70;;;16.90;99.90;;;;;;5091448;28;20464;-47
2022/07/10 05:35:02;;;;;;;4.63;2.80;;;16.80;99.90;;;;;;5091288;28;20440;-46
2022/07/10 05:37:29;;;;;;;3.90;2.90;;;16.70;99.90;;;;;;5090877;28;20896;-46
2022/07/10 05:39:56;;;;;;;3.20;2.50;;;16.90;99.90;;;;;;5090848;28;20449;-49
2022/07/10 05:42:23;;;;;;;3.37;3.00;;;17.00;99.90;;;;;;5091153;28;20431;-47
2022/07/10 05:44:50;;;;;;;3.63;3.10;;;17.00;99.90;;;;;;5091128;28;20448;-46
2022/07/10 05:47:17;;;;;;;3.20;2.87;;;17.10;99.90;;;;;;5090810;28;20474;-52
2022/07/10 05:49:44;;;;;;;3.40;3.10;;;17.10;99.90;;;;;;5090820;28;20493;-46
2022/07/10 05:52:12;;;;;;;3.47;2.90;;;17.10;99.90;;;;;;5090867;28;20827;-47
2022/07/10 05:54:39;;;;;;;3.43;2.80;;;17.20;99.90;;;;;;5090676;28;20431;-52
2022/07/10 05:57:06;;;;;;;3.67;3.33;;;17.20;99.90;;;;;;5090099;28;20501;-46
2022/07/10 05:59:34;;;;;;;3.20;2.87;;;17.20;99.90;;;;;;5090555;28;20568;-50
2022/07/10 06:02:01;;;;;;;3.43;3.13;;;17.20;99.90;;;;;;5090696;28;20432;-46
2022/07/10 06:04:28;;;;;;;3.00;2.70;;;17.30;99.90;;;;;;5090742;28;20497;-48
2022/07/10 06:06:56;;;;;;;4.33;3.00;;;17.30;99.90;;;;;;5090620;28;20464;-48
2022/07/10 06:09:24;;;;;;;3.20;2.90;;;17.40;99.90;;;;;;5090172;28;20958;-46
2022/07/10 06:11:51;;;;;;;4.77;3.10;;;17.30;99.90;;;;;;5090591;28;20474;-48
2022/07/10 06:14:18;;;;;;;4.27;3.03;;;17.40;99.90;;;;;;5090619;28;20496;-46
2022/07/10 06:16:45;;;;;;;3.00;2.70;;;17.20;99.90;;;;;;5090389;28;20468;-49
2022/07/10 06:19:12;;;;;;;2.90;2.70;;;17.10;99.90;;;;;;5090124;28;20488;-46
2022/07/10 06:21:39;;;;;;;4.97;2.50;;;17.10;99.90;;;;;;5090515;28;20525;-53
2022/07/10 06:24:06;;;;;;;3.23;2.60;;;17.10;99.90;;;;;;5090272;28;20443;-46
2022/07/10 06:26:35;;;;;;;2.70;2.50;;;17.10;99.90;;;;;;5090542;28;20460;-51
2022/07/10 06:29:02;;;;;;;3.47;2.70;;;17.20;99.90;;;;;;5089898;28;20448;-50
2022/07/10 06:31:29;;;;;;;4.10;2.47;;;17.30;99.90;;;;;;5090236;28;20444;-47
2022/07/10 06:33:56;;;;;;;2.90;2.53;;;17.40;99.90;;;;;;5090498;28;20534;-46
2022/07/10 06:36:23;;;;;;;2.70;2.50;;;17.50;99.90;;;;;;5090111;28;20537;-48
2022/07/10 06:38:50;;;;;;;2.60;2.40;;;17.50;99.90;;;;;;5089989;28;20483;-48
2022/07/10 06:41:17;;;;;;;3.77;3.33;;;17.50;99.90;;;;;;5090221;28;20500;-49
2022/07/10 06:43:45;;;;;;;2.33;2.13;;;17.50;99.90;;;;;;5090084;28;20447;-46
2022/07/10 06:46:12;;;;;;;4.53;2.87;;;17.50;99.90;;;;;;5089877;28;20537;-51
2022/07/10 06:48:40;;;;;;;2.73;2.53;;;17.50;99.90;;;;;;5090012;28;20928;-54
2022/07/10 06:51:07;;;;;;;3.60;3.27;;;17.50;99.90;;;;;;5089892;28;20905;-50
2022/07/10 06:53:34;;;;;;;3.80;3.30;;;17.50;99.90;;;;;;5090401;28;20444;-46
2022/07/10 06:56:01;;;;;;;3.23;2.53;;;17.60;99.90;;;;;;5089371;28;20452;-49
2022/07/10 06:58:29;;;;;;;3.00;2.70;;;17.50;99.90;;;;;;5089715;28;20467;-46
2022/07/10 07:00:57;;;;;;;3.60;3.30;;;17.50;99.90;;;;;;5090220;28;20449;-48
2022/07/10 07:03:24;;;;;;;3.37;3.07;;;17.50;99.90;;;;;;5089691;28;20440;-48
2022/07/10 07:05:51;;;;;;;3.03;2.83;;;17.50;99.90;;;;;;5089787;28;20447;-46
2022/07/10 07:08:18;;;;;;;3.87;3.40;;;17.50;99.90;;;;;;5089830;28;20497;-48
2022/07/10 07:10:45;;;;;;;2.73;2.53;;;17.40;99.90;;;;;;5089482;28;20809;-46
2022/07/10 07:13:12;;;;;;;3.03;2.73;;;17.50;99.90;;;;;;5089838;28;20505;-51
2022/07/10 07:15:42;;;;;;;3.00;2.47;;;17.40;99.90;;;;;;5089795;28;20471;-47
2022/07/10 07:18:12;;;;;;;3.83;2.80;;;16.70;99.90;;;;;;5089821;28;20498;-46
2022/07/10 07:23:25;;;;;;;3.73;3.13;;;15.90;99.90;;;;;;5089669;28;20955;-46
2022/07/10 07:25:52;;;;;;;4.03;3.40;;;15.80;99.90;;;;;;5089708;28;20559;-46
2022/07/10 07:28:20;;;;;;;7.30;4.67;;;16.00;99.90;;;;;;5089490;28;20440;-46
2022/07/10 07:30:48;;;;;;;6.33;5.07;;;16.20;99.90;;;;;;5090794;28;20972;-51
2022/07/10 07:33:16;;;;;;;4.67;4.13;;;16.30;99.90;;;;;;5093521;28;20501;-46
2022/07/10 07:35:43;;;;;;;4.03;3.30;;;16.30;99.90;;;;;;5093331;28;20451;-49
2022/07/10 07:38:10;;;;;;;4.03;3.63;;;16.40;99.90;;;;;;5093314;28;20471;-46
2022/07/10 07:40:38;;;;;;;4.10;3.50;;;16.50;99.90;;;;;;5093386;28;20656;-46
2022/07/10 07:43:05;;;;;;;4.40;3.10;;;16.60;99.90;;;;;;5093292;28;20921;-48
2022/07/10 07:45:32;;;;;;;3.63;3.33;;;16.50;99.90;;;;;;5093202;28;20520;-51
2022/07/10 07:48:01;;;;;;;3.97;3.30;;;16.10;99.90;;;;;;5093328;28;20443;-46
2022/07/10 07:50:33;;;;;;;5.20;4.70;;;15.80;99.90;;;;;;5092994;28;20450;-46
2022/07/10 07:53:01;;;;;;;4.40;4.00;;;16.00;99.90;;;;;;5093340;28;20516;-46
2022/07/10 07:55:28;;;;;;;3.50;3.17;;;16.20;99.90;;;;;;5092727;28;20516;-46
2022/07/10 07:57:57;;;;;;;8.03;6.23;;;16.30;99.90;;;;;;5093186;28;20560;-46
2022/07/10 08:00:26;;;;;;;8.33;6.40;;;16.40;99.90;;;;;;5093001;28;20436;-48
2022/07/10 08:02:53;;;;;;;6.50;5.90;;;16.50;99.90;;;;;;5093128;28;20469;-46
2022/07/10 08:05:21;;;;;;;5.10;4.60;;;16.60;99.90;;;;;;5093401;28;20448;-49
2022/07/10 08:07:52;;;;;;;4.57;4.07;;;16.60;99.90;;;;;;5092936;28;20492;-50
2022/07/10 08:10:21;;;;;;;3.40;3.00;;;16.70;99.90;;;;;;5092564;28;20436;-46
2022/07/10 08:12:49;;;;;;;3.87;3.20;;;16.70;99.90;;;;;;5092917;28;20470;-48
2022/07/10 08:15:19;;;;;;;5.30;3.30;;;16.70;99.90;;;;;;5093068;28;20427;-48
2022/07/10 08:17:49;;;;;;;3.50;3.20;;;16.70;99.90;;;;;;5092614;28;20996;-46
2022/07/10 08:20:16;;;;;;;3.50;3.20;;;16.50;99.90;;;;;;5092518;28;20935;-47
2022/07/10 08:22:44;;;;;;;3.93;3.60;;;16.60;99.90;;;;;;5092699;28;20444;-46
2022/07/10 08:25:12;;;;;;;3.40;3.10;;;16.80;99.90;;;;;;5092429;28;20432;-48
2022/07/10 08:27:40;;;;;;;3.67;3.37;;;16.70;99.90;;;;;;5092635;28;20451;-47
2022/07/10 08:30:09;;;;;;;3.70;3.20;;;16.80;99.90;;;;;;5092061;28;20439;-50
2022/07/10 08:32:36;;;;;;;3.03;2.73;;;17.00;99.90;;;;;;5092473;28;20444;-46
2022/07/10 08:35:04;;;;;;;3.67;2.83;;;17.00;99.90;;;;;;5092599;28;20526;-49
2022/07/10 08:37:31;;;;;;;6.43;3.63;;;17.00;99.90;;;;;;5092056;28;20468;-46
2022/07/10 08:39:58;;;;;;;3.40;2.93;;;17.10;99.90;;;;;;5092127;28;20447;-46
2022/07/10 08:42:27;;;;;;;3.37;2.90;;;17.20;99.90;;;;;;5091045;28;20452;-47
2022/07/10 08:44:54;;;;;;;3.50;3.20;;;17.20;99.90;;;;;;5092240;28;20505;-53
2022/07/10 08:47:25;;;;;;;2.80;2.60;;;17.20;99.90;;;;;;5092089;28;20503;-46
2022/07/10 08:49:52;;;;;;;4.30;3.17;;;17.20;99.90;;;;;;5091751;28;20920;-48
2022/07/10 08:52:28;;;;;;;3.27;2.97;;;17.20;99.90;;;;;;5092126;28;20447;-47
2022/07/10 08:54:56;;;;;;;3.20;2.90;;;17.20;99.90;;;;;;5091792;28;20447;-46
2022/07/10 08:57:24;;;;;;;7.90;5.90;;;17.20;99.90;;;;;;5092001;28;20547;-46
2022/07/10 08:59:53;;;;;;;5.83;3.80;;;17.20;99.90;;;;;;5091738;28;20854;-48
2022/07/10 09:02:21;;;;;;;4.97;3.57;;;17.20;99.90;;;;;;5091866;28;20462;-48
2022/07/10 09:04:48;;;;;;;3.70;3.17;;;17.20;99.90;;;;;;5091961;28;20936;-46
2022/07/10 09:07:15;;;;;;;3.33;2.73;;;17.30;99.90;;;;;;5091755;28;20559;-51
2022/07/10 09:09:55;;;;;;;4.50;3.30;;;17.30;99.90;;;;;;5091527;28;20451;-46
2022/07/10 09:12:23;;;;;;;4.00;3.03;;;17.40;99.90;;;;;;5091737;28;20497;-47
2022/07/10 09:14:53;;;;;;;6.10;3.50;;;17.50;99.90;;;;;;5091897;28;20443;-46
2022/07/10 09:17:20;;;;;;;3.73;2.97;;;17.50;99.90;;;;;;5091495;28;20463;-51
2022/07/10 09:19:47;;;;;;;2.70;2.50;;;17.50;99.90;;;;;;5091237;28;20439;-47
2022/07/10 09:22:15;;;;;;;3.67;2.97;;;17.50;99.90;;;;;;5091529;28;20440;-47
2022/07/10 09:24:44;;;;;;;3.23;2.70;;;17.40;99.90;;;;;;5091462;28;21017;-51
2022/07/10 09:27:14;;;;;;;3.60;2.70;;;17.40;99.90;;;;;;5091514;28;20463;-46
2022/07/10 09:29:50;;;;;;;2.60;2.40;;;17.20;99.90;;;;;;5090637;28;20436;-49
2022/07/10 09:32:19;;;;;;;3.80;3.17;;;17.30;99.90;;;;;;5091165;28;20474;-46
2022/07/10 09:34:47;;;;;;;3.20;2.80;;;17.40;99.90;;;;;;5091201;28;20514;-46
2022/07/10 09:37:22;;;;;;;3.63;3.10;;;17.40;99.90;;;;;;5090859;28;20885;-48
2022/07/10 09:39:57;;;;;;;3.60;2.87;;;17.40;99.90;;;;;;5090951;28;20485;-46
2022/07/10 09:42:29;;;;;;;3.50;3.17;;;17.40;99.90;;;;;;5091163;28;20496;-48
2022/07/10 09:45:17;;;;;;;2.97;2.67;;;17.40;99.90;;;;;;5091047;28;20431;-50
2022/07/10 09:47:54;;;;;;;4.90;3.63;;;17.30;99.90;;;;;;5148513;22;20494;-48
2022/07/10 09:50:24;;;;;;;3.00;2.80;;;17.40;99.90;;;;;;5090324;28;20447;-48
2022/07/10 09:52:53;;;;;;;6.93;3.30;;;17.40;99.90;;;;;;5090391;28;20428;-50
2022/07/10 09:55:22;;;;;;;4.37;3.30;;;17.40;99.90;;;;;;5090508;28;20530;-49
2022/07/10 09:57:55;;;;;;;3.27;2.80;;;17.40;99.90;;;;;;5090753;28;20892;-48
2022/07/10 10:00:25;;;;;;;3.63;3.33;;;17.30;99.90;;;;;;5090610;28;20454;-49
2022/07/10 10:02:56;;;;;;;4.10;3.53;;;17.30;99.90;;;;;;5090842;28;20454;-52
2022/07/10 10:05:29;;;;;;;3.50;3.20;;;17.30;99.90;;;;;;5091079;28;20464;-50
2022/07/10 10:07:57;;;;;;;3.57;3.10;;;17.40;99.90;;;;;;5090675;28;20464;-48
2022/07/10 10:10:25;;;;;;;3.67;2.70;;;17.30;99.90;;;;;;5090416;28;20444;-50
2022/07/10 10:12:59;;;;;;;3.87;2.90;;;17.20;99.90;;;;;;5090551;28;20435;-48
2022/07/10 10:15:28;;;;;;;3.17;2.87;;;17.20;99.90;;;;;;5090592;28;20515;-49
2022/07/10 10:17:57;;;;;;;3.80;3.40;;;17.40;99.90;;;;;;5090211;28;20475;-48
2022/07/10 10:20:41;;;;;;;4.43;2.73;;;17.40;99.90;;;;;;5090205;28;20993;-49
2022/07/10 10:23:11;;;;;;;3.90;3.20;;;17.30;99.90;;;;;;5090391;28;20438;-49
2022/07/10 10:25:40;;;;;;;3.40;3.10;;;17.30;99.90;;;;;;5090540;28;20432;-50
2022/07/10 10:28:10;;;;;;;5.03;3.50;;;17.30;99.90;;;;;;5090310;28;20521;-50
2022/07/10 10:30:39;;;;;;;4.10;3.70;;;17.30;99.90;;;;;;5089723;28;20535;-48
2022/07/10 10:33:44;;;;;;;4.17;3.77;;;17.40;99.90;;;;;;5090161;28;20470;-51
2022/07/10 10:36:13;;;;;;;4.30;3.90;;;17.60;99.90;;;;;;5090115;28;20452;-49
2022/07/10 10:39:04;;;;;;;4.87;4.37;;;17.60;99.90;;;;;;5089832;28;20495;-53
2022/07/10 10:41:38;;;;;;;4.43;4.03;;;17.60;99.90;;;;;;5089964;28;20428;-51
2022/07/10 10:44:35;;;;;;;4.30;3.90;;;17.70;99.90;;;;;;5090194;28;20444;-48
2022/07/10 10:47:07;;;;;;;3.87;3.47;;;17.80;99.90;;;;;;5007381;28;20459;-48
2022/07/10 10:49:58;;;;;;;5.27;4.20;;;17.80;99.90;;;;;;5072741;28;21006;-49
2022/07/10 10:52:26;;;;;;;4.10;3.70;;;17.90;99.90;;;;;;5089961;28;20912;-49
2022/07/10 10:55:11;;;;;;;4.27;3.87;;;17.90;99.90;;;;;;5089638;28;20423;-47
2022/07/10 10:57:47;;;;;;;5.00;4.33;;;18.00;99.90;;;;;;5090340;28;20497;-50
2022/07/10 11:00:40;;;;;;;5.07;4.57;;;18.00;99.90;;;;;;5090025;28;20550;-48
2022/07/10 11:03:18;;;;;;;4.33;3.93;;;18.00;99.90;;;;;;5085290;28;20526;-49
2022/07/10 11:05:48;;;;;;;4.20;3.80;;;18.00;99.90;;;;;;5091513;28;20451;-49
2022/07/10 11:08:35;;;;;;;4.63;4.03;;;17.90;99.90;;;;;;5093974;28;20447;-48
2022/07/10 11:11:22;;;;;;;5.47;5.00;;;17.90;99.90;;;;;;5093937;28;20439;-51
2022/07/10 11:13:51;;;;;;;4.93;4.30;;;18.00;99.90;;;;;;5093779;28;20932;-48
2022/07/10 11:16:18;;;;;;;4.73;4.30;;;18.00;99.90;;;;;;5093987;28;20454;-49
2022/07/10 11:18:45;;;;;;;5.87;4.40;;;18.00;99.90;;;;;;5093551;28;20474;-49
2022/07/10 11:21:24;;;;;;;4.90;4.40;;;18.00;99.90;;;;;;5093872;28;20488;-48
2022/07/10 11:24:00;;;;;;;4.57;4.17;;;18.00;99.90;;;;;;5093770;28;20541;-50
2022/07/10 11:26:36;;;;;;;4.87;4.47;;;18.00;99.90;;;;;;5093700;28;20524;-49
2022/07/10 11:29:06;;;;;;;5.10;4.50;;;18.00;99.90;;;;;;5093355;28;20644;-49
2022/07/10 11:31:38;;;;;;;4.53;4.20;;;17.80;99.90;;;;;;5093439;28;20432;-49
2022/07/10 11:34:05;;;;;;;4.50;4.10;;;17.80;99.90;;;;;;5093822;28;20436;-49
2022/07/10 11:36:34;;;;;;;5.37;4.97;;;17.60;99.90;;;;;;5093492;28;20486;-51
2022/07/10 11:39:04;;;;;;;5.40;4.90;;;17.20;99.90;;;;;;5093079;28;20539;-48
2022/07/10 11:41:31;;;;;;;5.70;5.17;;;17.20;99.90;;;;;;5093435;28;20933;-49
2022/07/10 11:43:59;;;;;;;5.20;4.20;;;17.20;99.90;;;;;;5093701;28;20471;-49
2022/07/10 11:46:28;;;;;;;6.30;5.80;;;17.20;99.90;;;;;;5093183;28;20479;-48
2022/07/10 11:48:56;;;;;;;6.13;5.47;;;17.10;99.90;;;;;;5093046;28;20526;-50
2022/07/10 11:51:26;;;;;;;5.73;5.23;;;17.10;99.90;;;;;;5093178;28;20481;-49
2022/07/10 11:54:02;;;;;;;6.60;5.43;;;17.20;99.90;;;;;;5093218;28;20969;-48
2022/07/10 11:56:32;;;;;;;6.50;5.93;;;17.20;99.90;;;;;;5092757;28;20503;-48
2022/07/10 11:59:01;;;;;;;5.20;4.70;;;17.20;99.90;;;;;;5092833;28;20471;-48
2022/07/10 12:01:29;;;;;;;6.43;5.93;;;17.30;99.90;;;;;;5093088;28;20577;-50
2022/07/10 12:03:58;;;;;;;5.60;5.10;;;17.40;99.90;;;;;;5092922;28;20476;-48
2022/07/10 12:06:26;;;;;;;7.40;6.80;;;17.40;99.90;;;;;;5092831;28;21007;-48
2022/07/10 12:08:53;;;;;;;6.27;5.77;;;17.30;99.90;;;;;;5093089;28;21146;-48
2022/07/10 12:11:23;;;;;;;7.17;6.57;;;17.30;99.90;;;;;;5092938;28;20440;-51
2022/07/10 12:13:54;;;;;;;6.93;6.30;;;17.40;99.90;;;;;;5092765;28;20448;-50
2022/07/10 12:16:23;;;;;;;7.57;6.87;;;17.60;99.90;;;;;;5092328;28;21038;-52
2022/07/10 12:18:50;;;;;;;6.63;6.03;;;17.70;99.90;;;;;;5092698;28;20506;-48
2022/07/10 12:21:17;;;;;;;7.57;6.80;;;17.80;99.90;;;;;;5092693;28;20451;-53
2022/07/10 12:23:48;;;;;;;5.53;5.07;;;17.90;99.90;;;;;;5092754;28;20448;-49
2022/07/10 12:26:16;;;;;;;6.17;5.57;;;18.00;99.90;;;;;;5092370;28;20991;-50
2022/07/10 12:29:03;;;;;;;6.00;5.50;;;18.10;99.90;;;;;;5092305;28;20941;-51
2022/07/10 12:31:32;;;;;;;7.13;5.50;;;18.10;99.90;;;;;;5092445;28;20805;-48
2022/07/10 12:34:02;;;;;;;5.97;5.47;;;18.10;99.90;;;;;;5092417;28;20626;-49
2022/07/10 12:36:43;;;;;;;5.80;5.20;;;18.20;99.90;;;;;;5092246;28;20448;-48
2022/07/10 12:39:11;;;;;;;6.97;6.37;;;18.30;99.90;;;;;;5092042;28;20554;-49
2022/07/10 12:41:57;;;;;;;5.63;5.20;;;18.30;99.90;;;;;;5092306;28;20532;-51
2022/07/10 12:44:42;;;;;;;5.77;5.37;;;18.40;99.90;;;;;;5092362;28;20443;-49
2022/07/10 12:47:12;;;;;;;5.90;5.40;;;18.50;99.90;;;;;;5092036;28;20487;-48
2022/07/10 12:49:50;;;;;;;5.50;5.00;;;18.40;99.90;;;;;;5092274;28;20439;-49
2022/07/10 12:52:22;;;;;;;5.57;5.00;;;18.40;99.90;;;;;;5092082;28;20447;-48
2022/07/10 12:54:49;;;;;;;6.10;5.37;;;18.40;99.90;;;;;;5092000;28;20542;-48
2022/07/10 12:57:16;;;;;;;5.50;4.87;;;18.20;99.90;;;;;;5092019;28;20468;-49
2022/07/10 12:59:45;;;;;;;5.67;5.17;;;18.20;99.90;;;;;;5091483;28;20468;-49
2022/07/10 13:02:17;;;;;;;5.87;5.37;;;18.20;99.90;;;;;;5092042;28;20526;-50
2022/07/10 13:04:54;;;;;;;6.30;5.17;;;18.30;99.90;;;;;;5091988;28;20482;-48